createdAt,value
2019-02-28T00:01:16.169Z,9.23
2019-02-28T00:03:49.534Z,8.40
2019-02-28T00:06:22.994Z,9.33
2019-02-28T00:08:56.320Z,8.50
2019-02-28T00:11:29.627Z,8.57
2019-02-28T00:14:03.008Z,8.90
2019-02-28T00:16:36.427Z,8.53
2019-02-28T00:19:09.671Z,8.20
2019-02-28T00:21:43.057Z,7.13
2019-02-28T00:24:16.347Z,8.20
2019-02-28T00:26:49.719Z,9.07
2019-02-28T00:29:23.025Z,8.73
2019-02-28T00:31:56.302Z,8.93
2019-02-28T00:34:29.693Z,8.73
2019-02-28T00:37:02.918Z,8.67
2019-02-28T00:39:36.227Z,10.00
2019-02-28T00:42:09.597Z,9.63
2019-02-28T00:44:42.955Z,9.17
2019-02-28T00:47:17.085Z,9.30
2019-02-28T00:49:50.382Z,9.63
2019-02-28T00:52:23.690Z,9.23
2019-02-28T00:54:57.009Z,9.17
2019-02-28T00:57:30.307Z,9.07
2019-02-28T01:00:06.261Z,9.20
2019-02-28T01:02:39.646Z,9.13
2019-02-28T01:05:12.964Z,10.40
2019-02-28T01:07:48.160Z,9.40
2019-02-28T01:10:21.366Z,9.43
2019-02-28T01:12:54.692Z,9.90
2019-02-28T01:15:27.966Z,9.43
2019-02-28T01:18:02.026Z,10.47
2019-02-28T01:20:35.346Z,10.10
2019-02-28T01:23:08.717Z,8.93
2019-02-28T01:25:42.013Z,10.23
2019-02-28T01:28:15.321Z,8.93
2019-02-28T01:30:48.616Z,9.07
2019-02-28T01:33:24.856Z,9.57
2019-02-28T01:35:56.950Z,8.90
2019-02-28T01:38:30.238Z,9.03
2019-02-28T01:41:03.520Z,8.90
2019-02-28T01:43:36.807Z,8.50
2019-02-28T01:46:10.121Z,8.37
2019-02-28T01:48:43.403Z,8.93
2019-02-28T01:51:16.749Z,8.97
2019-02-28T01:53:50.475Z,8.10
2019-02-28T01:56:25.073Z,8.50
2019-02-28T01:58:58.358Z,9.20
2019-02-28T02:01:31.749Z,9.20
2019-02-28T02:04:05.007Z,8.47
2019-02-28T02:06:38.333Z,9.13
2019-02-28T02:09:11.891Z,9.33
2019-02-28T02:11:45.225Z,9.37
2019-02-28T02:14:18.551Z,10.53
2019-02-28T02:16:51.861Z,9.90
2019-02-28T02:19:25.161Z,8.67
2019-02-28T02:21:58.458Z,9.70
2019-02-28T02:24:31.776Z,10.40
2019-02-28T02:27:05.117Z,9.50
2019-02-28T02:29:38.463Z,9.80
2019-02-28T02:32:12.213Z,9.63
2019-02-28T02:34:45.522Z,9.67
2019-02-28T02:37:18.817Z,9.90
2019-02-28T02:39:52.155Z,10.13
2019-02-28T02:42:25.448Z,10.23
2019-02-28T02:44:58.830Z,11.43
2019-02-28T02:47:32.618Z,9.80
2019-02-28T02:50:09.171Z,11.03
2019-02-28T02:52:42.609Z,11.77
2019-02-28T02:55:15.908Z,10.70
2019-02-28T02:57:51.783Z,11.27
2019-02-28T03:00:24.304Z,9.63
2019-02-28T03:02:59.233Z,10.03
2019-02-28T03:05:35.953Z,10.30
2019-02-28T03:08:09.197Z,10.00
2019-02-28T03:10:42.505Z,9.60
2019-02-28T03:13:15.867Z,11.30
2019-02-28T03:15:49.172Z,11.93
2019-02-28T03:18:22.476Z,12.10
2019-02-28T03:20:55.780Z,11.93
2019-02-28T03:23:29.099Z,11.83
2019-02-28T03:26:06.979Z,11.10
2019-02-28T03:28:37.411Z,13.57
2019-02-28T03:31:14.108Z,13.03
2019-02-28T03:33:45.731Z,13.40
2019-02-28T03:36:19.044Z,13.90
2019-02-28T03:38:52.373Z,13.60
2019-02-28T03:41:25.724Z,11.53
2019-02-28T03:43:59.011Z,11.47
2019-02-28T03:46:32.327Z,10.27
2019-02-28T03:49:11.160Z,11.70
2019-02-28T03:51:40.698Z,11.70
2019-02-28T03:54:13.950Z,12.23
2019-02-28T03:56:51.656Z,11.50
2019-02-28T03:59:22.287Z,12.90
2019-02-28T04:01:55.622Z,12.33
2019-02-28T04:04:28.927Z,13.00
2019-02-28T04:07:02.240Z,12.57
2019-02-28T04:09:35.542Z,13.57
2019-02-28T04:12:09.142Z,11.87
2019-02-28T04:14:42.526Z,12.03
2019-02-28T04:17:15.844Z,12.13
2019-02-28T04:19:49.142Z,12.13
2019-02-28T04:22:23.107Z,12.53
2019-02-28T04:24:57.296Z,11.90
2019-02-28T04:27:30.613Z,12.20
2019-02-28T04:30:08.011Z,13.80
2019-02-28T04:32:40.209Z,13.13
2019-02-28T04:35:13.576Z,12.40
2019-02-28T04:37:47.333Z,12.73
2019-02-28T04:40:20.770Z,12.67
2019-02-28T04:42:54.121Z,12.30
2019-02-28T04:45:27.414Z,11.80
2019-02-28T04:48:00.748Z,12.10
2019-02-28T04:50:34.047Z,12.30
2019-02-28T04:53:07.380Z,13.97
2019-02-28T04:55:40.685Z,13.60
2019-02-28T04:58:14.015Z,13.53
2019-02-28T05:00:47.294Z,14.00
2019-02-28T05:03:20.601Z,15.90
2019-02-28T05:05:53.895Z,15.67
2019-02-28T05:08:27.228Z,14.80
2019-02-28T05:11:00.534Z,13.93
2019-02-28T05:13:33.843Z,14.63
2019-02-28T05:16:09.405Z,15.10
2019-02-28T05:18:42.264Z,14.90
2019-02-28T05:21:16.549Z,14.73
2019-02-28T05:23:50.649Z,15.13
2019-02-28T05:26:26.225Z,15.30
2019-02-28T05:28:59.025Z,13.77
2019-02-28T05:31:32.378Z,14.90
2019-02-28T05:34:05.737Z,14.30
2019-02-28T05:36:39.044Z,14.30
2019-02-28T05:39:12.394Z,13.47
2019-02-28T05:41:49.167Z,14.63
2019-02-28T05:44:21.423Z,13.47
2019-02-28T05:46:57.590Z,14.10
2019-02-28T05:49:29.855Z,13.17
2019-02-28T05:52:03.228Z,14.37
2019-02-28T05:54:36.522Z,14.10
2019-02-28T05:57:09.850Z,16.73
2019-02-28T05:59:43.157Z,13.67
2019-02-28T06:02:18.930Z,14.30
2019-02-28T06:04:51.508Z,13.90
2019-02-28T06:07:25.988Z,15.13
2019-02-28T06:09:59.881Z,14.53
2019-02-28T06:12:33.174Z,14.17
2019-02-28T06:15:09.846Z,14.73
2019-02-28T06:17:43.212Z,15.77
2019-02-28T06:20:17.960Z,15.03
2019-02-28T06:22:51.360Z,16.67
2019-02-28T06:25:25.693Z,16.10
2019-02-28T06:27:59.053Z,15.40
2019-02-28T06:30:32.397Z,15.73
2019-02-28T06:33:05.703Z,15.87
2019-02-28T06:35:39.305Z,14.93
2019-02-28T06:38:12.556Z,16.23
2019-02-28T06:40:45.870Z,16.73
2019-02-28T06:43:19.591Z,15.40
2019-02-28T06:45:53.066Z,15.70
2019-02-28T06:48:26.737Z,16.43
2019-02-28T06:51:00.301Z,16.13
2019-02-28T06:53:36.305Z,15.70
2019-02-28T06:56:09.656Z,14.43
2019-02-28T06:58:42.961Z,16.00
2019-02-28T07:01:19.255Z,15.20
2019-02-28T07:03:53.690Z,14.67
2019-02-28T07:06:26.575Z,14.37
2019-02-28T07:09:02.375Z,15.00
2019-02-28T07:11:34.864Z,16.20
2019-02-28T07:14:12.929Z,15.37
2019-02-28T07:16:43.311Z,14.37
2019-02-28T07:19:16.973Z,15.50
2019-02-28T07:21:50.302Z,18.63
2019-02-28T07:24:23.682Z,16.70
2019-02-28T07:26:57.009Z,16.57
2019-02-28T07:29:32.061Z,15.40
2019-02-28T07:32:05.656Z,15.23
2019-02-28T07:34:38.994Z,25.10
2019-02-28T07:37:12.448Z,16.57
2019-02-28T07:39:45.797Z,16.07
2019-02-28T07:42:19.169Z,16.10
2019-02-28T07:44:53.677Z,15.93
2019-02-28T07:47:27.547Z,14.83
2019-02-28T07:50:00.999Z,14.97
2019-02-28T07:52:34.502Z,14.43
2019-02-28T07:55:11.106Z,14.20
2019-02-28T07:57:53.301Z,14.20
2019-02-28T08:00:26.315Z,14.03
2019-02-28T08:02:59.689Z,13.47
2019-02-28T08:05:33.075Z,13.90
2019-02-28T08:08:07.794Z,12.80
2019-02-28T08:10:41.063Z,14.17
2019-02-28T08:13:14.336Z,14.77
2019-02-28T08:15:47.711Z,13.83
2019-02-28T08:18:21.832Z,13.67
2019-02-28T08:20:55.180Z,14.00
2019-02-28T08:23:29.947Z,14.33
2019-02-28T08:26:03.538Z,14.70
2019-02-28T08:28:37.093Z,13.80
2019-02-28T08:31:10.964Z,14.10
2019-02-28T08:33:44.256Z,15.20
2019-02-28T08:36:17.651Z,14.70
2019-02-28T08:38:51.240Z,13.57
2019-02-28T08:41:25.726Z,15.17
2019-02-28T08:43:59.833Z,14.23
2019-02-28T08:46:33.237Z,16.97
2019-02-28T08:49:07.404Z,15.70
2019-02-28T08:51:40.740Z,14.03
2019-02-28T08:54:14.062Z,16.37
2019-02-28T08:56:49.526Z,13.97
2019-02-28T08:59:22.948Z,14.90
2019-02-28T09:01:56.295Z,14.07
2019-02-28T09:04:29.675Z,14.80
2019-02-28T09:07:02.946Z,15.20
2019-02-28T09:09:36.280Z,14.97
2019-02-28T09:12:09.701Z,14.57
2019-02-28T09:14:43.159Z,14.97
2019-02-28T09:17:18.551Z,14.90
2019-02-28T09:19:51.709Z,15.40
2019-02-28T09:22:27.339Z,15.87
2019-02-28T09:25:00.283Z,16.00
2019-02-28T09:27:38.452Z,16.40
2019-02-28T09:30:17.621Z,15.90
2019-02-28T09:32:50.955Z,17.03
2019-02-28T09:35:24.362Z,16.87
2019-02-28T09:37:57.754Z,16.73
2019-02-28T09:40:31.259Z,16.93
2019-02-28T09:43:04.887Z,17.77
2019-02-28T09:45:40.021Z,17.87
2019-02-28T09:48:13.464Z,17.87
2019-02-28T09:50:46.846Z,17.50
2019-02-28T09:53:20.277Z,18.90
2019-02-28T09:55:53.840Z,17.37
2019-02-28T09:58:29.321Z,18.63
2019-02-28T10:01:02.395Z,19.23
2019-02-28T10:03:36.066Z,19.33
2019-02-28T10:06:09.570Z,19.80
2019-02-28T10:08:43.088Z,20.80
2019-02-28T10:11:16.662Z,20.47
2019-02-28T10:13:53.152Z,21.60
2019-02-28T10:16:25.380Z,20.57
2019-02-28T10:18:58.836Z,19.73
2019-02-28T10:21:33.281Z,20.57
2019-02-28T10:24:07.289Z,20.07
2019-02-28T10:26:40.673Z,19.43
2019-02-28T10:29:14.076Z,18.30
2019-02-28T10:31:47.436Z,19.67
2019-02-28T10:34:23.512Z,19.63
2019-02-28T10:36:55.849Z,19.90
2019-02-28T10:39:29.368Z,18.13
2019-02-28T10:42:05.225Z,18.67
2019-02-28T10:44:37.959Z,18.63
2019-02-28T10:47:11.271Z,19.90
2019-02-28T10:49:44.634Z,19.13
2019-02-28T10:52:18.109Z,19.73
2019-02-28T10:54:51.385Z,18.13
2019-02-28T10:57:24.779Z,19.10
2019-02-28T10:59:59.162Z,16.50
2019-02-28T11:02:32.593Z,20.23
2019-02-28T11:05:07.955Z,19.30
2019-02-28T11:07:41.463Z,19.40
2019-02-28T11:10:15.777Z,19.10
2019-02-28T11:12:49.178Z,19.87
2019-02-28T11:15:24.590Z,19.47
2019-02-28T11:17:57.963Z,18.90
2019-02-28T11:20:33.173Z,18.57
2019-02-28T11:23:07.745Z,18.73
2019-02-28T11:25:41.350Z,19.20
2019-02-28T11:28:15.034Z,18.37
2019-02-28T11:30:54.353Z,18.27
2019-02-28T11:33:27.686Z,19.10
2019-02-28T11:36:01.255Z,18.47
2019-02-28T11:38:34.694Z,18.17
2019-02-28T11:41:08.059Z,18.63
2019-02-28T11:43:41.491Z,18.00
2019-02-28T11:46:15.169Z,17.93
2019-02-28T11:48:51.020Z,18.17
2019-02-28T11:51:23.517Z,17.23
2019-02-28T11:53:56.941Z,17.13
2019-02-28T11:56:30.239Z,17.27
2019-02-28T11:59:03.670Z,17.03
2019-02-28T12:01:37.062Z,19.00
2019-02-28T12:04:10.562Z,14.20
2019-02-28T12:06:43.853Z,14.03
2019-02-28T12:09:19.237Z,14.07
2019-02-28T12:11:52.737Z,13.50
2019-02-28T12:14:26.413Z,15.70
2019-02-28T12:17:01.137Z,14.33
2019-02-28T12:19:34.523Z,14.50
2019-02-28T12:22:09.228Z,14.70
2019-02-28T12:24:43.055Z,13.70
2019-02-28T12:27:18.270Z,13.80
2019-02-28T12:29:51.648Z,14.60
2019-02-28T12:32:24.955Z,13.67
2019-02-28T12:35:01.485Z,13.30
2019-02-28T12:37:34.424Z,12.63
2019-02-28T12:40:11.200Z,13.50
2019-02-28T12:42:44.420Z,12.67
2019-02-28T12:45:24.510Z,12.53
2019-02-28T12:47:58.703Z,12.73
2019-02-28T12:50:32.088Z,13.33
2019-02-28T12:53:05.577Z,12.13
2019-02-28T12:55:40.132Z,12.67
2019-02-28T12:58:13.668Z,11.20
2019-02-28T13:00:47.213Z,11.53
2019-02-28T13:03:21.204Z,13.17
2019-02-28T13:05:54.809Z,11.47
2019-02-28T13:08:28.275Z,12.17
2019-02-28T13:11:04.521Z,12.33
2019-02-28T13:13:37.034Z,11.27
2019-02-28T13:16:10.432Z,11.37
2019-02-28T13:18:44.454Z,11.93
2019-02-28T13:21:17.798Z,13.10
2019-02-28T13:23:51.154Z,11.60
2019-02-28T13:26:24.541Z,13.23
2019-02-28T13:28:58.159Z,13.60
2019-02-28T13:31:31.621Z,12.80
2019-02-28T13:34:04.997Z,14.40
2019-02-28T13:36:38.423Z,15.63
2019-02-28T13:39:11.902Z,14.70
2019-02-28T13:41:48.228Z,13.00
2019-02-28T13:44:21.680Z,15.47
2019-02-28T13:46:55.041Z,15.30
2019-02-28T13:49:28.405Z,15.60
2019-02-28T13:52:01.719Z,15.07
2019-02-28T13:54:38.149Z,15.80
2019-02-28T13:57:10.285Z,12.97
2019-02-28T13:59:43.713Z,15.43
2019-02-28T14:02:17.017Z,16.23
2019-02-28T14:04:50.350Z,15.87
2019-02-28T14:07:25.924Z,15.80
2019-02-28T14:09:58.873Z,14.07
2019-02-28T14:12:32.389Z,16.17
2019-02-28T14:15:08.899Z,12.60
2019-02-28T14:17:42.201Z,16.50
2019-02-28T14:20:15.528Z,18.07
2019-02-28T14:22:48.876Z,16.00
2019-02-28T14:25:23.686Z,15.20
2019-02-28T14:28:00.309Z,14.50
2019-02-28T14:30:33.340Z,16.67
2019-02-28T14:33:06.870Z,16.27
2019-02-28T14:35:40.354Z,16.13
2019-02-28T14:38:13.682Z,16.20
2019-02-28T14:40:49.553Z,15.87
2019-02-28T14:43:22.193Z,15.73
2019-02-28T14:45:55.592Z,15.67
2019-02-28T14:48:28.889Z,16.37
2019-02-28T14:51:02.452Z,17.60
2019-02-28T14:53:35.691Z,15.83
2019-02-28T14:56:09.310Z,13.27
2019-02-28T14:58:42.619Z,15.83
2019-02-28T15:01:18.023Z,16.40
2019-02-28T15:03:51.274Z,16.13
2019-02-28T15:06:26.430Z,16.50
2019-02-28T15:08:59.815Z,15.67
2019-02-28T15:11:33.312Z,16.70
2019-02-28T15:14:08.773Z,15.57
2019-02-28T15:16:41.819Z,14.57
2019-02-28T15:19:15.211Z,11.37
2019-02-28T15:21:48.529Z,14.13
2019-02-28T15:24:21.914Z,15.67
2019-02-28T15:26:55.412Z,13.83
2019-02-28T15:29:28.795Z,9.53
2019-02-28T15:32:02.135Z,11.37
2019-02-28T15:34:37.469Z,14.30
2019-02-28T15:37:10.639Z,14.03
2019-02-28T15:39:44.029Z,13.47
2019-02-28T15:42:17.507Z,11.70
2019-02-28T15:44:50.877Z,11.47
2019-02-28T15:47:24.587Z,11.90
2019-02-28T15:49:57.835Z,11.27
2019-02-28T15:52:31.256Z,11.57
2019-02-28T15:55:05.512Z,9.97
2019-02-28T15:57:38.931Z,11.50
2019-02-28T16:00:29.701Z,10.30
2019-02-28T16:03:03.165Z,12.33
2019-02-28T16:05:42.425Z,12.07
2019-02-28T16:08:11.856Z,10.33
2019-02-28T16:10:52.853Z,11.90
2019-02-28T16:13:22.670Z,14.00
2019-02-28T16:15:55.295Z,14.27
2019-02-28T16:18:28.783Z,14.20
2019-02-28T16:21:03.659Z,13.27
2019-02-28T16:23:37.158Z,14.83
2019-02-28T16:26:10.565Z,12.27
2019-02-28T16:28:43.962Z,13.43
2019-02-28T16:31:18.742Z,14.90
2019-02-28T16:33:52.300Z,13.43
2019-02-28T16:36:26.568Z,16.00
2019-02-28T16:39:00.139Z,15.73
2019-02-28T16:41:33.680Z,10.87
2019-02-28T16:44:08.592Z,15.87
2019-02-28T16:46:41.959Z,14.03
2019-02-28T16:49:15.358Z,11.77
2019-02-28T16:51:48.770Z,14.30
2019-02-28T16:54:22.750Z,7.93
2019-02-28T16:56:56.678Z,10.20
2019-02-28T16:59:31.733Z,6.23
2019-02-28T17:02:05.138Z,6.73
2019-02-28T17:04:38.490Z,5.93
2019-02-28T17:07:11.782Z,4.93
2019-02-28T17:09:46.700Z,6.80
2019-02-28T17:12:27.262Z,5.27
2019-02-28T17:14:59.612Z,5.90
2019-02-28T17:17:34.561Z,3.93
2019-02-28T17:20:07.948Z,5.80
2019-02-28T17:22:41.246Z,5.97
2019-02-28T17:25:14.568Z,5.47
2019-02-28T17:34:15.630Z,5.73
2019-02-28T17:36:49.051Z,6.93
2019-02-28T17:39:22.428Z,5.60
2019-02-28T17:41:55.892Z,6.70
2019-02-28T17:44:33.981Z,5.77
2019-02-28T17:47:10.414Z,6.87
2019-02-28T17:50:15.817Z,6.53
2019-02-28T17:53:21.208Z,6.43
2019-02-28T17:56:12.804Z,7.37
2019-02-28T17:59:21.219Z,6.87
2019-02-28T18:02:09.313Z,7.60
2019-02-28T18:05:11.599Z,7.53
2019-02-28T18:08:00.524Z,7.87
2019-02-28T18:10:40.938Z,7.23
2019-02-28T18:13:26.419Z,7.50
2019-02-28T18:16:24.216Z,7.47
2019-02-28T18:19:33.115Z,7.73
2019-02-28T18:22:16.078Z,7.53
2019-02-28T18:25:07.614Z,7.13
2019-02-28T18:27:58.926Z,7.73
2019-02-28T18:30:38.333Z,7.87
2019-02-28T18:33:11.619Z,6.87
2019-02-28T18:35:44.994Z,7.53
2019-02-28T18:38:18.486Z,8.03
2019-02-28T18:40:51.830Z,7.90
2019-02-28T18:43:27.005Z,7.70
2019-02-28T18:46:00.140Z,7.43
2019-02-28T18:48:33.442Z,7.30
2019-02-28T18:51:06.756Z,7.03
2019-02-28T18:53:40.037Z,7.60
2019-02-28T18:56:13.365Z,7.83
2019-02-28T18:58:46.638Z,7.03
2019-02-28T19:01:20.032Z,6.90
2019-02-28T19:03:53.336Z,7.37
2019-02-28T19:06:26.645Z,7.27
2019-02-28T19:08:59.999Z,7.50
2019-02-28T19:11:33.312Z,8.03
2019-02-28T19:14:06.620Z,7.43
2019-02-28T19:16:39.958Z,7.37
2019-02-28T19:19:13.306Z,7.70
2019-02-28T19:24:48.237Z,7.50
2019-02-28T19:27:21.544Z,8.17
2019-02-28T19:29:55.070Z,7.50
2019-02-28T19:32:28.386Z,8.73
2019-02-28T19:35:01.665Z,8.70
2019-02-28T19:37:35.005Z,9.20
2019-02-28T19:40:10.712Z,9.60
2019-02-28T19:42:44.035Z,8.60
2019-02-28T19:45:20.505Z,8.47
2019-02-28T19:47:53.829Z,8.73
2019-02-28T19:50:27.123Z,9.70
2019-02-28T19:53:00.508Z,9.40
2019-02-28T19:55:33.871Z,9.13
2019-02-28T19:58:07.213Z,10.27
2019-02-28T20:00:40.503Z,9.77
2019-02-28T20:03:13.935Z,10.20
2019-02-28T20:05:47.213Z,10.33
2019-02-28T20:08:20.545Z,10.37
2019-02-28T20:10:53.894Z,10.57
2019-02-28T20:13:27.198Z,9.80
2019-02-28T20:16:00.484Z,9.83
2019-02-28T20:18:33.797Z,10.33
2019-02-28T20:21:07.336Z,9.23
2019-02-28T20:23:40.668Z,9.53
2019-02-28T20:26:14.053Z,9.27
2019-02-28T20:28:47.356Z,10.10
2019-02-28T20:31:20.914Z,8.67
2019-02-28T20:33:54.243Z,9.50
2019-02-28T20:36:27.559Z,9.67
2019-02-28T20:39:00.892Z,9.80
2019-02-28T20:41:34.192Z,8.50
2019-02-28T20:44:07.583Z,9.10
2019-02-28T20:46:40.882Z,8.73
2019-02-28T20:49:14.341Z,8.77
2019-02-28T20:51:54.805Z,8.33
2019-02-28T20:54:22.694Z,8.07
2019-02-28T20:56:55.981Z,8.23
2019-02-28T20:59:29.274Z,7.40
2019-02-28T21:02:02.584Z,7.37
2019-02-28T21:04:36.357Z,6.57
2019-02-28T21:07:09.798Z,6.73
2019-02-28T21:09:45.154Z,6.60
2019-02-28T21:12:18.332Z,6.50
2019-02-28T21:14:51.648Z,6.00
2019-02-28T21:17:29.375Z,6.77
2019-02-28T21:20:00.091Z,4.73
2019-02-28T21:22:33.442Z,5.83
2019-02-28T21:25:09.791Z,5.43
2019-02-28T21:27:43.099Z,6.10
2019-02-28T21:30:19.577Z,5.30
2019-02-28T21:32:52.892Z,5.73
2019-02-28T21:35:26.529Z,5.50
2019-02-28T21:38:00.092Z,5.23
2019-02-28T21:40:33.487Z,5.13
2019-02-28T21:43:06.777Z,5.33
2019-02-28T21:45:40.090Z,4.50
2019-02-28T21:48:13.457Z,4.80
2019-02-28T21:50:46.738Z,4.33
2019-02-28T21:53:20.037Z,5.20
2019-02-28T21:55:53.344Z,5.10
2019-02-28T21:58:26.821Z,4.50
2019-02-28T22:01:00.203Z,4.40
2019-02-28T22:03:33.508Z,4.47
2019-02-28T22:06:06.869Z,4.50
2019-02-28T22:08:40.193Z,5.07
2019-02-28T22:11:13.597Z,4.70
2019-02-28T22:13:46.933Z,4.43
2019-02-28T22:16:20.184Z,4.23
2019-02-28T22:18:53.473Z,4.00
2019-02-28T22:21:26.751Z,4.07
2019-02-28T22:24:01.707Z,4.00
2019-02-28T22:26:34.996Z,3.93
2019-02-28T22:29:08.285Z,3.73
2019-02-28T22:31:46.154Z,3.90
2019-02-28T22:34:24.039Z,4.17
2019-02-28T22:36:57.337Z,3.87
2019-02-28T22:39:30.651Z,4.30
2019-02-28T22:42:03.953Z,4.07
2019-02-28T22:44:37.238Z,3.80
2019-02-28T22:47:10.524Z,3.67
2019-02-28T22:49:43.835Z,3.73
2019-02-28T22:52:17.110Z,3.87
2019-02-28T22:54:50.406Z,3.67
2019-02-28T22:57:23.703Z,4.10
2019-02-28T22:59:56.993Z,4.00
2019-02-28T23:02:30.941Z,4.00
2019-02-28T23:05:05.388Z,3.47
2019-02-28T23:07:38.677Z,4.23
2019-02-28T23:10:11.982Z,4.33
2019-02-28T23:12:45.253Z,4.87
2019-02-28T23:15:18.558Z,4.20
2019-02-28T23:17:51.836Z,5.10
2019-02-28T23:20:25.130Z,4.67
2019-02-28T23:22:58.432Z,4.50
2019-02-28T23:25:31.712Z,4.47
2019-02-28T23:28:13.355Z,4.80
2019-02-28T23:31:10.884Z,4.83
2019-02-28T23:33:44.156Z,5.13
2019-02-28T23:36:17.449Z,5.10
2019-02-28T23:38:50.913Z,5.00
2019-02-28T23:41:24.204Z,5.40
2019-02-28T23:43:57.483Z,5.70
2019-02-28T23:46:30.786Z,5.97
2019-02-28T23:49:04.080Z,5.83
2019-02-28T23:51:37.389Z,5.80
2019-02-28T23:54:10.884Z,6.03
2019-02-28T23:56:44.232Z,6.10
2019-02-28T23:59:17.565Z,6.77
